<?xml version="1.0" encoding="UTF-8" standalone="no" ?>
<gpx xmlns="http://www.topografix.com/GPX/1/1" xmlns:xsi="http://www.w3.org/2001/XMLSchema-instance" xsi:schemaLocation="http://www.topografix.com/GPX/1/1 http://www.topografix.com/GPX/1/1/gpx.xsd" version="1.1" creator="VisuGPX - https://www.visugpx.com">
  <metadata>
    <name>Edirne-Sarajevo</name>
  </metadata>
  <trk>
    <name><![CDATA[Tour d'Europe: étape 664]]></name>
    <extensions>
      <line xmlns="http://www.topografix.com/GPX/gpx_style/0/2">
        <color>000088</color>
        <width>4</width>
      </line>
    </extensions>
    <trkseg>
      <trkpt lat="41.99589" lon="21.42541">
        <ele>321.714643</ele>
        <time>2022-04-23T07:24:37.605Z</time>
      </trkpt>
      <trkpt lat="41.99552" lon="21.42576">
        <ele>320.718866</ele>
        <time>2022-04-23T07:49:05.512Z</time>
      </trkpt>
      <trkpt lat="41.99512" lon="21.42259">
        <ele>311.847555</ele>
        <time>2022-04-23T07:50:36.514Z</time>
      </trkpt>
      <trkpt lat="41.99464" lon="21.41967">
        <ele>310.471018</ele>
        <time>2022-04-23T07:51:27.500Z</time>
      </trkpt>
      <trkpt lat="41.9947" lon="21.41703">
        <ele>304.826113</ele>
        <time>2022-04-23T07:52:11.535Z</time>
      </trkpt>
      <trkpt lat="41.99515" lon="21.41412">
        <ele>303.919732</ele>
        <time>2022-04-23T07:53:01.503Z</time>
      </trkpt>
      <trkpt lat="41.99553" lon="21.41109">
        <ele>305.832102</ele>
        <time>2022-04-23T07:54:34.525Z</time>
      </trkpt>
      <trkpt lat="41.99592" lon="21.40826">
        <ele>306.723967</ele>
        <time>2022-04-23T07:55:21.506Z</time>
      </trkpt>
      <trkpt lat="41.99635" lon="21.40536">
        <ele>307.90982</ele>
        <time>2022-04-23T07:56:10.497Z</time>
      </trkpt>
      <trkpt lat="41.99672" lon="21.40249">
        <ele>304.331944</ele>
        <time>2022-04-23T07:56:52.505Z</time>
      </trkpt>
      <trkpt lat="41.99712" lon="21.39966">
        <ele>301.756757</ele>
        <time>2022-04-23T07:57:38.504Z</time>
      </trkpt>
      <trkpt lat="41.99751" lon="21.39694">
        <ele>305.534667</ele>
        <time>2022-04-23T07:58:23.489Z</time>
      </trkpt>
      <trkpt lat="41.9979" lon="21.394">
        <ele>309.820198</ele>
        <time>2022-04-23T07:59:11.523Z</time>
      </trkpt>
      <trkpt lat="41.99831" lon="21.39121">
        <ele>310.970185</ele>
        <time>2022-04-23T08:00:09.510Z</time>
      </trkpt>
      <trkpt lat="41.9985" lon="21.38839">
        <ele>307.726828</ele>
        <time>2022-04-23T08:01:48.542Z</time>
      </trkpt>
      <trkpt lat="41.99897" lon="21.38547">
        <ele>309.999121</ele>
        <time>2022-04-23T08:02:45.497Z</time>
      </trkpt>
      <trkpt lat="41.99947" lon="21.38251">
        <ele>318.096147</ele>
        <time>2022-04-23T08:03:45.508Z</time>
      </trkpt>
      <trkpt lat="42.00004" lon="21.37983">
        <ele>320.754724</ele>
        <time>2022-04-23T08:04:49.534Z</time>
      </trkpt>
      <trkpt lat="42.00129" lon="21.37751">
        <ele>316.41142</ele>
        <time>2022-04-23T08:05:38.514Z</time>
      </trkpt>
      <trkpt lat="42.00256" lon="21.37552">
        <ele>317.746249</ele>
        <time>2022-04-23T08:06:18.496Z</time>
      </trkpt>
      <trkpt lat="42.00384" lon="21.37351">
        <ele>320.870216</ele>
        <time>2022-04-23T08:06:56.536Z</time>
      </trkpt>
      <trkpt lat="42.00504" lon="21.3716">
        <ele>328.417465</ele>
        <time>2022-04-23T08:07:36.523Z</time>
      </trkpt>
      <trkpt lat="42.00641" lon="21.36928">
        <ele>331.246212</ele>
        <time>2022-04-23T08:08:24.553Z</time>
      </trkpt>
      <trkpt lat="42.00728" lon="21.36626">
        <ele>320.701984</ele>
        <time>2022-04-23T08:09:59.516Z</time>
      </trkpt>
      <trkpt lat="42.00685" lon="21.36353">
        <ele>319.055604</ele>
        <time>2022-04-23T08:10:51.498Z</time>
      </trkpt>
      <trkpt lat="42.00815" lon="21.36192">
        <ele>314.655441</ele>
        <time>2022-04-23T08:11:43.519Z</time>
      </trkpt>
      <trkpt lat="42.00911" lon="21.36147">
        <ele>317.909192</ele>
        <time>2022-04-23T08:12:42.513Z</time>
      </trkpt>
      <trkpt lat="42.00915" lon="21.35916">
        <ele>326.734904</ele>
        <time>2022-04-23T08:14:03.492Z</time>
      </trkpt>
      <trkpt lat="42.00892" lon="21.35615">
        <ele>318.297437</ele>
        <time>2022-04-23T08:15:03.503Z</time>
      </trkpt>
      <trkpt lat="42.00958" lon="21.35352">
        <ele>319.996079</ele>
        <time>2022-04-23T08:16:03.521Z</time>
      </trkpt>
      <trkpt lat="42.01052" lon="21.35124">
        <ele>322.379743</ele>
        <time>2022-04-23T08:17:02.513Z</time>
      </trkpt>
      <trkpt lat="42.01077" lon="21.34853">
        <ele>317.963322</ele>
        <time>2022-04-23T08:17:48.542Z</time>
      </trkpt>
      <trkpt lat="42.01085" lon="21.34525">
        <ele>319.484922</ele>
        <time>2022-04-23T08:18:46.513Z</time>
      </trkpt>
      <trkpt lat="42.01057" lon="21.34221">
        <ele>324.970592</ele>
        <time>2022-04-23T08:19:38.540Z</time>
      </trkpt>
      <trkpt lat="42.01058" lon="21.33953">
        <ele>318.373431</ele>
        <time>2022-04-23T08:20:34.516Z</time>
      </trkpt>
      <trkpt lat="42.01072" lon="21.33708">
        <ele>319.63463</ele>
        <time>2022-04-23T08:21:37.587Z</time>
      </trkpt>
      <trkpt lat="42.01046" lon="21.33428">
        <ele>322.870187</ele>
        <time>2022-04-23T08:22:42.521Z</time>
      </trkpt>
      <trkpt lat="42.00991" lon="21.33154">
        <ele>325.177084</ele>
        <time>2022-04-23T08:24:12.491Z</time>
      </trkpt>
      <trkpt lat="42.00945" lon="21.3288">
        <ele>323.739247</ele>
        <time>2022-04-23T08:25:21.531Z</time>
      </trkpt>
      <trkpt lat="42.00933" lon="21.32596">
        <ele>323.934035</ele>
        <time>2022-04-23T08:26:27.500Z</time>
      </trkpt>
      <trkpt lat="42.00994" lon="21.32305">
        <ele>325.680462</ele>
        <time>2022-04-23T08:27:26.498Z</time>
      </trkpt>
      <trkpt lat="42.01034" lon="21.32015">
        <ele>327.428035</ele>
        <time>2022-04-23T08:28:23.501Z</time>
      </trkpt>
      <trkpt lat="42.01111" lon="21.31756">
        <ele>328.393061</ele>
        <time>2022-04-23T08:29:14.519Z</time>
      </trkpt>
      <trkpt lat="42.01111" lon="21.31431">
        <ele>334.857678</ele>
        <time>2022-04-23T08:30:12.511Z</time>
      </trkpt>
      <trkpt lat="42.01117" lon="21.31149">
        <ele>335.962692</ele>
        <time>2022-04-23T08:31:21.513Z</time>
      </trkpt>
      <trkpt lat="42.0115" lon="21.30853">
        <ele>331.851442</ele>
        <time>2022-04-23T08:32:13.489Z</time>
      </trkpt>
      <trkpt lat="42.01186" lon="21.30571">
        <ele>334.513684</ele>
        <time>2022-04-23T08:33:19.499Z</time>
      </trkpt>
      <trkpt lat="42.01252" lon="21.30307">
        <ele>336.241402</ele>
        <time>2022-04-23T08:34:27.522Z</time>
      </trkpt>
      <trkpt lat="42.01316" lon="21.30036">
        <ele>335.192366</ele>
        <time>2022-04-23T08:35:18.510Z</time>
      </trkpt>
      <trkpt lat="42.01419" lon="21.29829">
        <ele>342.580723</ele>
        <time>2022-04-23T08:36:43.504Z</time>
      </trkpt>
      <trkpt lat="42.01549" lon="21.29568">
        <ele>344.148042</ele>
        <time>2022-04-23T08:37:31.511Z</time>
      </trkpt>
      <trkpt lat="42.01604" lon="21.29282">
        <ele>345.331156</ele>
        <time>2022-04-23T08:38:31.511Z</time>
      </trkpt>
      <trkpt lat="42.01679" lon="21.29023">
        <ele>346.388185</ele>
        <time>2022-04-23T08:39:39.515Z</time>
      </trkpt>
      <trkpt lat="42.0185" lon="21.28921">
        <ele>347.541435</ele>
        <time>2022-04-23T08:40:40.509Z</time>
      </trkpt>
      <trkpt lat="42.02049" lon="21.28875">
        <ele>355.487572</ele>
        <time>2022-04-23T08:41:50.520Z</time>
      </trkpt>
      <trkpt lat="42.02214" lon="21.28754">
        <ele>354.406153</ele>
        <time>2022-04-23T08:42:44.510Z</time>
      </trkpt>
      <trkpt lat="42.02001" lon="21.28751">
        <ele>350.846041</ele>
        <time>2022-04-23T08:43:37.509Z</time>
      </trkpt>
      <trkpt lat="42.01731" lon="21.28687">
        <ele>337.054118</ele>
        <time>2022-04-23T08:44:17.544Z</time>
      </trkpt>
      <trkpt lat="42.01668" lon="21.28379">
        <ele>333.826426</ele>
        <time>2022-04-23T08:45:03.494Z</time>
      </trkpt>
      <trkpt lat="42.01681" lon="21.28107">
        <ele>337.095126</ele>
        <time>2022-04-23T08:45:54.513Z</time>
      </trkpt>
      <trkpt lat="42.01749" lon="21.27831">
        <ele>341.851786</ele>
        <time>2022-04-23T08:46:54.516Z</time>
      </trkpt>
      <trkpt lat="42.01885" lon="21.27629">
        <ele>342.964505</ele>
        <time>2022-04-23T08:47:55.489Z</time>
      </trkpt>
      <trkpt lat="42.0203" lon="21.27417">
        <ele>340.700751</ele>
        <time>2022-04-23T08:48:56.533Z</time>
      </trkpt>
      <trkpt lat="42.02238" lon="21.27323">
        <ele>337.644395</ele>
        <time>2022-04-23T08:49:48.513Z</time>
      </trkpt>
      <trkpt lat="42.02428" lon="21.27214">
        <ele>337.774899</ele>
        <time>2022-04-23T08:50:46.512Z</time>
      </trkpt>
      <trkpt lat="42.02598" lon="21.27038">
        <ele>343.072546</ele>
        <time>2022-04-23T08:56:32.494Z</time>
      </trkpt>
      <trkpt lat="42.02786" lon="21.26872">
        <ele>341.725399</ele>
        <time>2022-04-23T08:57:21.511Z</time>
      </trkpt>
      <trkpt lat="42.02974" lon="21.26747">
        <ele>344.622193</ele>
        <time>2022-04-23T08:58:27.510Z</time>
      </trkpt>
      <trkpt lat="42.03163" lon="21.26618">
        <ele>349.84261</ele>
        <time>2022-04-23T08:59:42.531Z</time>
      </trkpt>
      <trkpt lat="42.0326" lon="21.26392">
        <ele>347.887209</ele>
        <time>2022-04-23T09:00:47.532Z</time>
      </trkpt>
      <trkpt lat="42.03332" lon="21.26115">
        <ele>343.16574</ele>
        <time>2022-04-23T09:01:25.503Z</time>
      </trkpt>
      <trkpt lat="42.0336" lon="21.2584">
        <ele>340.914565</ele>
        <time>2022-04-23T09:02:30.507Z</time>
      </trkpt>
      <trkpt lat="42.03414" lon="21.25587">
        <ele>350.568807</ele>
        <time>2022-04-23T09:03:57.522Z</time>
      </trkpt>
      <trkpt lat="42.03571" lon="21.25393">
        <ele>355.141171</ele>
        <time>2022-04-23T09:04:53.501Z</time>
      </trkpt>
      <trkpt lat="42.03694" lon="21.25177">
        <ele>358.21284</ele>
        <time>2022-04-23T09:05:46.512Z</time>
      </trkpt>
      <trkpt lat="42.03861" lon="21.25083">
        <ele>362.03944</ele>
        <time>2022-04-23T09:07:44.512Z</time>
      </trkpt>
      <trkpt lat="42.04075" lon="21.25072">
        <ele>361.305206</ele>
        <time>2022-04-23T09:08:40.500Z</time>
      </trkpt>
      <trkpt lat="42.04268" lon="21.25112">
        <ele>363.633835</ele>
        <time>2022-04-23T09:09:57.478Z</time>
      </trkpt>
      <trkpt lat="42.04419" lon="21.25279">
        <ele>373.379623</ele>
        <time>2022-04-23T09:12:06.505Z</time>
      </trkpt>
      <trkpt lat="42.04637" lon="21.25426">
        <ele>359.051238</ele>
        <time>2022-04-23T09:12:46.476Z</time>
      </trkpt>
      <trkpt lat="42.04876" lon="21.2542">
        <ele>340.668468</ele>
        <time>2022-04-23T09:13:34.472Z</time>
      </trkpt>
      <trkpt lat="42.05083" lon="21.25469">
        <ele>343.523795</ele>
        <time>2022-04-23T09:14:23.505Z</time>
      </trkpt>
      <trkpt lat="42.05305" lon="21.25469">
        <ele>348.82653</ele>
        <time>2022-04-23T09:15:16.509Z</time>
      </trkpt>
      <trkpt lat="42.05531" lon="21.25454">
        <ele>351.126154</ele>
        <time>2022-04-23T09:16:11.513Z</time>
      </trkpt>
      <trkpt lat="42.05733" lon="21.25317">
        <ele>352.070347</ele>
        <time>2022-04-23T09:17:04.519Z</time>
      </trkpt>
      <trkpt lat="42.05914" lon="21.2518">
        <ele>347.718154</ele>
        <time>2022-04-23T09:17:47.517Z</time>
      </trkpt>
      <trkpt lat="42.061" lon="21.25049">
        <ele>348.622136</ele>
        <time>2022-04-23T09:18:48.515Z</time>
      </trkpt>
      <trkpt lat="42.06268" lon="21.2484">
        <ele>349.538851</ele>
        <time>2022-04-23T09:19:47.550Z</time>
      </trkpt>
      <trkpt lat="42.06456" lon="21.24731">
        <ele>351.877806</ele>
        <time>2022-04-23T09:20:49.502Z</time>
      </trkpt>
      <trkpt lat="42.06639" lon="21.24634">
        <ele>359.668719</ele>
        <time>2022-04-23T09:21:58.498Z</time>
      </trkpt>
      <trkpt lat="42.06765" lon="21.24394">
        <ele>362.764231</ele>
        <time>2022-04-23T09:22:59.502Z</time>
      </trkpt>
      <trkpt lat="42.06903" lon="21.24144">
        <ele>356.660529</ele>
        <time>2022-04-23T09:24:02.519Z</time>
      </trkpt>
      <trkpt lat="42.07067" lon="21.23936">
        <ele>357.746563</ele>
        <time>2022-04-23T09:24:59.526Z</time>
      </trkpt>
      <trkpt lat="42.07234" lon="21.23759">
        <ele>360.232713</ele>
        <time>2022-04-23T09:25:51.512Z</time>
      </trkpt>
      <trkpt lat="42.07436" lon="21.23611">
        <ele>358.211842</ele>
        <time>2022-04-23T09:26:45.509Z</time>
      </trkpt>
      <trkpt lat="42.07593" lon="21.23408">
        <ele>355.995688</ele>
        <time>2022-04-23T09:27:37.515Z</time>
      </trkpt>
      <trkpt lat="42.07737" lon="21.23174">
        <ele>364.032605</ele>
        <time>2022-04-23T09:28:40.536Z</time>
      </trkpt>
      <trkpt lat="42.07896" lon="21.2295">
        <ele>363.213937</ele>
        <time>2022-04-23T09:29:36.497Z</time>
      </trkpt>
      <trkpt lat="42.08004" lon="21.22653">
        <ele>353.467855</ele>
        <time>2022-04-23T09:30:36.501Z</time>
      </trkpt>
      <trkpt lat="42.08153" lon="21.22453">
        <ele>359.297853</ele>
        <time>2022-04-23T09:31:36.490Z</time>
      </trkpt>
      <trkpt lat="42.08311" lon="21.22287">
        <ele>361.459911</ele>
        <time>2022-04-23T09:32:47.505Z</time>
      </trkpt>
      <trkpt lat="42.08418" lon="21.2205">
        <ele>364.565333</ele>
        <time>2022-04-23T09:33:41.477Z</time>
      </trkpt>
      <trkpt lat="42.08492" lon="21.21783">
        <ele>360.974528</ele>
        <time>2022-04-23T09:34:36.511Z</time>
      </trkpt>
      <trkpt lat="42.08607" lon="21.21541">
        <ele>362.348815</ele>
        <time>2022-04-23T09:35:34.489Z</time>
      </trkpt>
      <trkpt lat="42.0863" lon="21.21356">
        <ele>358.6828</ele>
        <time>2022-04-23T09:36:49.493Z</time>
      </trkpt>
      <trkpt lat="42.08778" lon="21.21231">
        <ele>360.436955</ele>
        <time>2022-04-23T09:37:50.503Z</time>
      </trkpt>
      <trkpt lat="42.08901" lon="21.21005">
        <ele>363.708784</ele>
        <time>2022-04-23T09:39:10.496Z</time>
      </trkpt>
      <trkpt lat="42.09022" lon="21.20746">
        <ele>365.811565</ele>
        <time>2022-04-23T09:40:15.506Z</time>
      </trkpt>
      <trkpt lat="42.0907" lon="21.20476">
        <ele>371.459803</ele>
        <time>2022-04-23T09:41:14.505Z</time>
      </trkpt>
      <trkpt lat="42.09155" lon="21.20217">
        <ele>364.081717</ele>
        <time>2022-04-23T09:42:14.512Z</time>
      </trkpt>
      <trkpt lat="42.09272" lon="21.19991">
        <ele>370.214717</ele>
        <time>2022-04-23T09:43:16.520Z</time>
      </trkpt>
      <trkpt lat="42.09425" lon="21.19807">
        <ele>369.9279</ele>
        <time>2022-04-23T09:44:17.503Z</time>
      </trkpt>
      <trkpt lat="42.09598" lon="21.19648">
        <ele>367.565695</ele>
        <time>2022-04-23T09:45:11.515Z</time>
      </trkpt>
      <trkpt lat="42.0976" lon="21.19474">
        <ele>369.699887</ele>
        <time>2022-04-23T09:46:22.497Z</time>
      </trkpt>
      <trkpt lat="42.09905" lon="21.19312">
        <ele>379.242198</ele>
        <time>2022-04-23T09:47:39.517Z</time>
      </trkpt>
      <trkpt lat="42.10037" lon="21.19092">
        <ele>388.524936</ele>
        <time>2022-04-23T09:48:54.525Z</time>
      </trkpt>
      <trkpt lat="42.10148" lon="21.18868">
        <ele>384.51974</ele>
        <time>2022-04-23T09:50:04.513Z</time>
      </trkpt>
      <trkpt lat="42.10234" lon="21.1859">
        <ele>384.4482</ele>
        <time>2022-04-23T09:51:06.509Z</time>
      </trkpt>
      <trkpt lat="42.10359" lon="21.18361">
        <ele>384.30311</ele>
        <time>2022-04-23T09:52:08.519Z</time>
      </trkpt>
      <trkpt lat="42.1041" lon="21.18117">
        <ele>380.738408</ele>
        <time>2022-04-23T09:52:57.516Z</time>
      </trkpt>
      <trkpt lat="42.10375" lon="21.17818">
        <ele>385.326606</ele>
        <time>2022-04-23T09:53:47.497Z</time>
      </trkpt>
      <trkpt lat="42.1035" lon="21.17563">
        <ele>392.264823</ele>
        <time>2022-04-23T09:55:21.490Z</time>
      </trkpt>
      <trkpt lat="42.10348" lon="21.17283">
        <ele>390.663157</ele>
        <time>2022-04-23T09:56:26.486Z</time>
      </trkpt>
      <trkpt lat="42.10271" lon="21.17036">
        <ele>391.662567</ele>
        <time>2022-04-23T09:57:33.500Z</time>
      </trkpt>
      <trkpt lat="42.10283" lon="21.16745">
        <ele>394.052619</ele>
        <time>2022-04-23T09:58:37.516Z</time>
      </trkpt>
      <trkpt lat="42.10212" lon="21.16463">
        <ele>391.912975</ele>
        <time>2022-04-23T09:59:29.500Z</time>
      </trkpt>
      <trkpt lat="42.10072" lon="21.16238">
        <ele>395.067223</ele>
        <time>2022-04-23T10:00:28.503Z</time>
      </trkpt>
      <trkpt lat="42.10049" lon="21.15948">
        <ele>399.828464</ele>
        <time>2022-04-23T10:01:36.506Z</time>
      </trkpt>
      <trkpt lat="42.10028" lon="21.15676">
        <ele>407.629903</ele>
        <time>2022-04-23T10:03:13.505Z</time>
      </trkpt>
      <trkpt lat="42.09934" lon="21.15408">
        <ele>403.572489</ele>
        <time>2022-04-23T10:04:07.537Z</time>
      </trkpt>
      <trkpt lat="42.10084" lon="21.15216">
        <ele>409.814816</ele>
        <time>2022-04-23T10:05:06.509Z</time>
      </trkpt>
      <trkpt lat="42.10153" lon="21.14964">
        <ele>417.428071</ele>
        <time>2022-04-23T10:06:02.534Z</time>
      </trkpt>
      <trkpt lat="42.10106" lon="21.14682">
        <ele>421.042744</ele>
        <time>2022-04-23T10:07:04.510Z</time>
      </trkpt>
      <trkpt lat="42.10039" lon="21.1443">
        <ele>419.874687</ele>
        <time>2022-04-23T10:08:33.510Z</time>
      </trkpt>
      <trkpt lat="42.10072" lon="21.14093">
        <ele>410.104022</ele>
        <time>2022-04-23T10:09:14.528Z</time>
      </trkpt>
      <trkpt lat="42.09992" lon="21.13864">
        <ele>411.566822</ele>
        <time>2022-04-23T10:10:19.498Z</time>
      </trkpt>
      <trkpt lat="42.09835" lon="21.13805">
        <ele>421.774927</ele>
        <time>2022-04-23T10:12:01.496Z</time>
      </trkpt>
      <trkpt lat="42.0979" lon="21.13529">
        <ele>421.261527</ele>
        <time>2022-04-23T10:13:06.486Z</time>
      </trkpt>
      <trkpt lat="42.09615" lon="21.13321">
        <ele>414.91938</ele>
        <time>2022-04-23T10:13:50.491Z</time>
      </trkpt>
      <trkpt lat="42.09369" lon="21.13289">
        <ele>415.00662</ele>
        <time>2022-04-23T10:14:31.520Z</time>
      </trkpt>
      <trkpt lat="42.0917" lon="21.1338">
        <ele>416.349329</ele>
        <time>2022-04-23T10:15:33.500Z</time>
      </trkpt>
      <trkpt lat="42.0898" lon="21.13373">
        <ele>424.497913</ele>
        <time>2022-04-23T10:17:37.503Z</time>
      </trkpt>
      <trkpt lat="42.08821" lon="21.13188">
        <ele>427.623446</ele>
        <time>2022-04-23T10:18:42.507Z</time>
      </trkpt>
      <trkpt lat="42.08755" lon="21.12867">
        <ele>425.401259</ele>
        <time>2022-04-23T10:19:32.500Z</time>
      </trkpt>
      <trkpt lat="42.08609" lon="21.12641">
        <ele>422.720289</ele>
        <time>2022-04-23T10:20:35.505Z</time>
      </trkpt>
      <trkpt lat="42.08423" lon="21.12454">
        <ele>421.495351</ele>
        <time>2022-04-23T10:21:18.534Z</time>
      </trkpt>
      <trkpt lat="42.08229" lon="21.12292">
        <ele>424.152736</ele>
        <time>2022-04-23T10:22:16.500Z</time>
      </trkpt>
      <trkpt lat="42.08142" lon="21.12076">
        <ele>431.81926</ele>
        <time>2022-04-23T10:24:05.526Z</time>
      </trkpt>
      <trkpt lat="42.07994" lon="21.11892">
        <ele>432.964682</ele>
        <time>2022-04-23T10:25:07.507Z</time>
      </trkpt>
      <trkpt lat="42.07798" lon="21.11801">
        <ele>433.864667</ele>
        <time>2022-04-23T10:26:01.504Z</time>
      </trkpt>
      <trkpt lat="42.0759" lon="21.11786">
        <ele>435.805609</ele>
        <time>2022-04-23T10:27:06.522Z</time>
      </trkpt>
      <trkpt lat="42.07392" lon="21.1185">
        <ele>436.474586</ele>
        <time>2022-04-23T10:28:04.537Z</time>
      </trkpt>
      <trkpt lat="42.07379" lon="21.11934">
        <ele>440.146691</ele>
        <time>2022-04-23T10:37:21.498Z</time>
      </trkpt>
      <trkpt lat="42.07271" lon="21.12085">
        <ele>441.409296</ele>
        <time>2022-04-23T10:38:19.503Z</time>
      </trkpt>
      <trkpt lat="42.07069" lon="21.12075">
        <ele>436.224063</ele>
        <time>2022-04-23T10:38:59.490Z</time>
      </trkpt>
      <trkpt lat="42.06851" lon="21.12069">
        <ele>434.856637</ele>
        <time>2022-04-23T10:39:47.523Z</time>
      </trkpt>
      <trkpt lat="42.0663" lon="21.12097">
        <ele>431.964102</ele>
        <time>2022-04-23T10:40:27.510Z</time>
      </trkpt>
      <trkpt lat="42.06421" lon="21.12168">
        <ele>431.598116</ele>
        <time>2022-04-23T10:41:11.539Z</time>
      </trkpt>
      <trkpt lat="42.06283" lon="21.12038">
        <ele>435.312122</ele>
        <time>2022-04-23T10:42:07.533Z</time>
      </trkpt>
      <trkpt lat="42.06159" lon="21.11808">
        <ele>435.659207</ele>
        <time>2022-04-23T10:43:04.521Z</time>
      </trkpt>
      <trkpt lat="42.05941" lon="21.11748">
        <ele>434.247253</ele>
        <time>2022-04-23T10:43:54.505Z</time>
      </trkpt>
      <trkpt lat="42.05706" lon="21.11782">
        <ele>436.490064</ele>
        <time>2022-04-23T10:44:52.494Z</time>
      </trkpt>
      <trkpt lat="42.05489" lon="21.11705">
        <ele>435.120456</ele>
        <time>2022-04-23T10:45:46.516Z</time>
      </trkpt>
      <trkpt lat="42.05306" lon="21.11679">
        <ele>435.358632</ele>
        <time>2022-04-23T10:46:51.513Z</time>
      </trkpt>
      <trkpt lat="42.05158" lon="21.11487">
        <ele>437.571979</ele>
        <time>2022-04-23T10:47:34.494Z</time>
      </trkpt>
      <trkpt lat="42.05054" lon="21.11251">
        <ele>441.363902</ele>
        <time>2022-04-23T10:48:47.502Z</time>
      </trkpt>
      <trkpt lat="42.04946" lon="21.11004">
        <ele>441.046642</ele>
        <time>2022-04-23T10:49:50.506Z</time>
      </trkpt>
      <trkpt lat="42.04809" lon="21.10752">
        <ele>440.90662</ele>
        <time>2022-04-23T10:50:49.514Z</time>
      </trkpt>
      <trkpt lat="42.0468" lon="21.10532">
        <ele>445.671939</ele>
        <time>2022-04-23T10:51:36.515Z</time>
      </trkpt>
      <trkpt lat="42.04489" lon="21.10371">
        <ele>446.512017</ele>
        <time>2022-04-23T10:52:33.505Z</time>
      </trkpt>
      <trkpt lat="42.04317" lon="21.10203">
        <ele>446.860641</ele>
        <time>2022-04-23T10:53:18.516Z</time>
      </trkpt>
      <trkpt lat="42.04156" lon="21.10041">
        <ele>442.547365</ele>
        <time>2022-04-23T10:53:59.509Z</time>
      </trkpt>
      <trkpt lat="42.0397" lon="21.09916">
        <ele>441.030024</ele>
        <time>2022-04-23T10:54:41.505Z</time>
      </trkpt>
      <trkpt lat="42.0376" lon="21.09883">
        <ele>440.513416</ele>
        <time>2022-04-23T10:55:23.496Z</time>
      </trkpt>
      <trkpt lat="42.0355" lon="21.09847">
        <ele>439.832683</ele>
        <time>2022-04-23T10:56:14.493Z</time>
      </trkpt>
      <trkpt lat="42.03371" lon="21.09821">
        <ele>441.345874</ele>
        <time>2022-04-23T10:56:53.533Z</time>
      </trkpt>
      <trkpt lat="42.03216" lon="21.0971">
        <ele>441.071411</ele>
        <time>2022-04-23T10:57:34.505Z</time>
      </trkpt>
      <trkpt lat="42.03128" lon="21.09454">
        <ele>440.760822</ele>
        <time>2022-04-23T10:58:18.494Z</time>
      </trkpt>
      <trkpt lat="42.03022" lon="21.09248">
        <ele>439.299843</ele>
        <time>2022-04-23T10:59:03.496Z</time>
      </trkpt>
      <trkpt lat="42.02803" lon="21.09228">
        <ele>437.518049</ele>
        <time>2022-04-23T10:59:48.545Z</time>
      </trkpt>
      <trkpt lat="42.02677" lon="21.09063">
        <ele>439.771475</ele>
        <time>2022-04-23T11:00:26.574Z</time>
      </trkpt>
      <trkpt lat="42.02637" lon="21.08792">
        <ele>441.883096</ele>
        <time>2022-04-23T11:01:12.555Z</time>
      </trkpt>
      <trkpt lat="42.0253" lon="21.08551">
        <ele>441.821532</ele>
        <time>2022-04-23T11:01:56.539Z</time>
      </trkpt>
      <trkpt lat="42.02422" lon="21.08303">
        <ele>440.450468</ele>
        <time>2022-04-23T11:02:40.520Z</time>
      </trkpt>
      <trkpt lat="42.02294" lon="21.0815">
        <ele>439.294294</ele>
        <time>2022-04-23T11:03:35.533Z</time>
      </trkpt>
      <trkpt lat="42.02066" lon="21.08187">
        <ele>437.299917</ele>
        <time>2022-04-23T11:04:21.502Z</time>
      </trkpt>
      <trkpt lat="42.0191" lon="21.08021">
        <ele>437.84663</ele>
        <time>2022-04-23T11:05:11.520Z</time>
      </trkpt>
      <trkpt lat="42.01823" lon="21.07767">
        <ele>437.927277</ele>
        <time>2022-04-23T11:05:58.493Z</time>
      </trkpt>
      <trkpt lat="42.01754" lon="21.07478">
        <ele>439.175577</ele>
        <time>2022-04-23T11:06:53.510Z</time>
      </trkpt>
      <trkpt lat="42.01691" lon="21.0723">
        <ele>439.039018</ele>
        <time>2022-04-23T11:07:46.519Z</time>
      </trkpt>
      <trkpt lat="42.01605" lon="21.06991">
        <ele>440.970299</ele>
        <time>2022-04-23T11:08:37.522Z</time>
      </trkpt>
      <trkpt lat="42.01474" lon="21.06764">
        <ele>444.481221</ele>
        <time>2022-04-23T11:09:30.506Z</time>
      </trkpt>
      <trkpt lat="42.01368" lon="21.06542">
        <ele>444.246373</ele>
        <time>2022-04-23T11:10:26.510Z</time>
      </trkpt>
      <trkpt lat="42.01202" lon="21.0632">
        <ele>443.636725</ele>
        <time>2022-04-23T11:11:22.502Z</time>
      </trkpt>
      <trkpt lat="42.01026" lon="21.06121">
        <ele>445.34117</ele>
        <time>2022-04-23T11:12:17.526Z</time>
      </trkpt>
      <trkpt lat="42.00873" lon="21.05927">
        <ele>446.684493</ele>
        <time>2022-04-23T11:13:08.504Z</time>
      </trkpt>
      <trkpt lat="42.00706" lon="21.05743">
        <ele>448.349198</ele>
        <time>2022-04-23T11:14:00.518Z</time>
      </trkpt>
      <trkpt lat="42.00495" lon="21.05688">
        <ele>449.428967</ele>
        <time>2022-04-23T11:14:51.524Z</time>
      </trkpt>
      <trkpt lat="42.00322" lon="21.05763">
        <ele>449.501535</ele>
        <time>2022-04-23T11:15:46.512Z</time>
      </trkpt>
      <trkpt lat="42.00107" lon="21.05742">
        <ele>445.15519</ele>
        <time>2022-04-23T11:16:28.543Z</time>
      </trkpt>
      <trkpt lat="41.99892" lon="21.05715">
        <ele>444.463455</ele>
        <time>2022-04-23T11:17:19.496Z</time>
      </trkpt>
      <trkpt lat="41.99675" lon="21.05674">
        <ele>445.235351</ele>
        <time>2022-04-23T11:18:16.513Z</time>
      </trkpt>
      <trkpt lat="41.99469" lon="21.0566">
        <ele>445.369877</ele>
        <time>2022-04-23T11:19:01.511Z</time>
      </trkpt>
      <trkpt lat="41.99273" lon="21.05612">
        <ele>446.774769</ele>
        <time>2022-04-23T11:19:49.524Z</time>
      </trkpt>
      <trkpt lat="41.9911" lon="21.05777">
        <ele>444.560048</ele>
        <time>2022-04-23T11:20:30.508Z</time>
      </trkpt>
      <trkpt lat="41.98904" lon="21.05864">
        <ele>441.819424</ele>
        <time>2022-04-23T11:21:13.583Z</time>
      </trkpt>
      <trkpt lat="41.98764" lon="21.05785">
        <ele>444.719963</ele>
        <time>2022-04-23T11:22:08.513Z</time>
      </trkpt>
      <trkpt lat="41.98752" lon="21.05462">
        <ele>446.123987</ele>
        <time>2022-04-23T11:23:08.498Z</time>
      </trkpt>
      <trkpt lat="41.9882" lon="21.05169">
        <ele>446.812891</ele>
        <time>2022-04-23T11:24:05.534Z</time>
      </trkpt>
      <trkpt lat="41.98885" lon="21.04857">
        <ele>449.914711</ele>
        <time>2022-04-23T11:25:02.541Z</time>
      </trkpt>
      <trkpt lat="41.98881" lon="21.04553">
        <ele>451.615886</ele>
        <time>2022-04-23T11:26:02.509Z</time>
      </trkpt>
      <trkpt lat="41.9886" lon="21.04255">
        <ele>453.402732</ele>
        <time>2022-04-23T11:27:02.509Z</time>
      </trkpt>
      <trkpt lat="41.98858" lon="21.03944">
        <ele>451.562833</ele>
        <time>2022-04-23T11:28:02.489Z</time>
      </trkpt>
      <trkpt lat="41.98922" lon="21.03688">
        <ele>453.256591</ele>
        <time>2022-04-23T11:28:59.502Z</time>
      </trkpt>
      <trkpt lat="41.98813" lon="21.03609">
        <ele>453.742797</ele>
        <time>2022-04-23T11:29:50.499Z</time>
      </trkpt>
      <trkpt lat="41.98711" lon="21.03808">
        <ele>453.018242</ele>
        <time>2022-04-23T11:30:51.486Z</time>
      </trkpt>
      <trkpt lat="41.98504" lon="21.03935">
        <ele>451.121418</ele>
        <time>2022-04-23T11:31:50.514Z</time>
      </trkpt>
      <trkpt lat="41.98277" lon="21.03996">
        <ele>456.103772</ele>
        <time>2022-04-23T11:32:45.522Z</time>
      </trkpt>
      <trkpt lat="41.98172" lon="21.03827">
        <ele>455.670878</ele>
        <time>2022-04-23T11:33:47.501Z</time>
      </trkpt>
      <trkpt lat="41.98106" lon="21.03584">
        <ele>457.673959</ele>
        <time>2022-04-23T11:34:56.508Z</time>
      </trkpt>
      <trkpt lat="41.97969" lon="21.0337">
        <ele>459.944342</ele>
        <time>2022-04-23T11:36:06.522Z</time>
      </trkpt>
      <trkpt lat="41.97815" lon="21.03203">
        <ele>461.454877</ele>
        <time>2022-04-23T11:37:28.512Z</time>
      </trkpt>
      <trkpt lat="41.97647" lon="21.03028">
        <ele>462.187965</ele>
        <time>2022-04-23T11:38:45.519Z</time>
      </trkpt>
      <trkpt lat="41.97488" lon="21.02838">
        <ele>460.130813</ele>
        <time>2022-04-23T11:40:08.499Z</time>
      </trkpt>
      <trkpt lat="41.97344" lon="21.02646">
        <ele>460.779566</ele>
        <time>2022-04-23T11:41:05.504Z</time>
      </trkpt>
      <trkpt lat="41.97292" lon="21.0238">
        <ele>459.384717</ele>
        <time>2022-04-23T11:42:06.500Z</time>
      </trkpt>
      <trkpt lat="41.97336" lon="21.02078">
        <ele>461.183435</ele>
        <time>2022-04-23T11:43:02.513Z</time>
      </trkpt>
      <trkpt lat="41.97379" lon="21.01804">
        <ele>460.055264</ele>
        <time>2022-04-23T11:43:59.505Z</time>
      </trkpt>
      <trkpt lat="41.97505" lon="21.01554">
        <ele>458.561265</ele>
        <time>2022-04-23T11:44:59.506Z</time>
      </trkpt>
      <trkpt lat="41.97637" lon="21.01321">
        <ele>457.570026</ele>
        <time>2022-04-23T11:46:04.519Z</time>
      </trkpt>
      <trkpt lat="41.97739" lon="21.01087">
        <ele>460.97418</ele>
        <time>2022-04-23T11:47:06.496Z</time>
      </trkpt>
      <trkpt lat="41.978" lon="21.00826">
        <ele>467.432572</ele>
        <time>2022-04-23T11:48:08.515Z</time>
      </trkpt>
      <trkpt lat="41.97927" lon="21.00573">
        <ele>465.938977</ele>
        <time>2022-04-23T11:49:08.548Z</time>
      </trkpt>
      <trkpt lat="41.97991" lon="21.00291">
        <ele>466.081907</ele>
        <time>2022-04-23T11:50:09.497Z</time>
      </trkpt>
      <trkpt lat="41.9808" lon="21.00036">
        <ele>466.729287</ele>
        <time>2022-04-23T11:51:09.489Z</time>
      </trkpt>
      <trkpt lat="41.98187" lon="20.99798">
        <ele>468.735826</ele>
        <time>2022-04-23T11:52:06.519Z</time>
      </trkpt>
      <trkpt lat="41.98319" lon="20.99554">
        <ele>468.292473</ele>
        <time>2022-04-23T11:53:06.517Z</time>
      </trkpt>
      <trkpt lat="41.98462" lon="20.99328">
        <ele>469.149274</ele>
        <time>2022-04-23T11:54:07.510Z</time>
      </trkpt>
      <trkpt lat="41.98493" lon="20.99102">
        <ele>476.493687</ele>
        <time>2022-04-23T11:55:10.493Z</time>
      </trkpt>
      <trkpt lat="41.98332" lon="20.98943">
        <ele>481.276863</ele>
        <time>2022-04-23T11:56:15.513Z</time>
      </trkpt>
      <trkpt lat="41.98192" lon="20.98749">
        <ele>481.922521</ele>
        <time>2022-04-23T11:57:36.495Z</time>
      </trkpt>
      <trkpt lat="41.98087" lon="20.98531">
        <ele>481.492621</ele>
        <time>2022-04-23T11:58:56.501Z</time>
      </trkpt>
      <trkpt lat="41.97997" lon="20.98288">
        <ele>482.594617</ele>
        <time>2022-04-23T12:00:16.549Z</time>
      </trkpt>
      <trkpt lat="41.97928" lon="20.98035">
        <ele>480.844331</ele>
        <time>2022-04-23T12:01:22.505Z</time>
      </trkpt>
      <trkpt lat="41.97853" lon="20.9778">
        <ele>481.702237</ele>
        <time>2022-04-23T12:02:23.504Z</time>
      </trkpt>
      <trkpt lat="41.97734" lon="20.97564">
        <ele>488.886277</ele>
        <time>2022-04-23T12:03:25.508Z</time>
      </trkpt>
      <trkpt lat="41.97741" lon="20.97322">
        <ele>487.764239</ele>
        <time>2022-04-23T12:04:30.518Z</time>
      </trkpt>
      <trkpt lat="41.97724" lon="20.97037">
        <ele>498.372708</ele>
        <time>2022-04-23T12:05:50.597Z</time>
      </trkpt>
      <trkpt lat="41.97881" lon="20.96914">
        <ele>494.610146</ele>
        <time>2022-04-23T12:06:59.515Z</time>
      </trkpt>
      <trkpt lat="41.9797" lon="20.96915">
        <ele>494.610146</ele>
        <time>2022-04-23T12:08:38.166Z</time>
      </trkpt>
    </trkseg>
  </trk>
</gpx>